Time;durP1;ratioP1;P1;durP2;ratioP2;P2;SDS_P1;SDS_P2;PMS_P1;PMS_P2;Temp;Humidity;BMP_temperature;BMP_pressure;BME280_temperature;BME280_humidity;BME280_pressure;Samples;Min_cycle;Max_cycle;Signal;HPM_P1;HPM_P2
2024/03/13 00:00:10;;;;;;;7.78;4.13;;;7.20;99.90;;;;;;5030302;28;20026;-92
2024/03/13 00:02:37;;;;;;;6.70;3.80;;;7.20;99.90;;;;;;5036707;28;20029;-91
2024/03/13 00:05:04;;;;;;;6.38;3.75;;;7.20;99.90;;;;;;5031034;28;20026;-91
2024/03/13 00:07:31;;;;;;;5.50;3.10;;;7.20;99.90;;;;;;5017265;28;20032;-91
2024/03/13 00:09:57;;;;;;;8.57;5.22;;;7.30;99.90;;;;;;5021761;28;20025;-91
2024/03/13 00:12:24;;;;;;;6.65;4.43;;;7.30;99.90;;;;;;5038014;28;20095;-91
2024/03/13 00:14:51;;;;;;;8.82;4.10;;;7.30;99.90;;;;;;5036568;28;20065;-92
2024/03/13 00:17:20;;;;;;;4.90;3.78;;;7.30;99.90;;;;;;5037563;28;20021;-90
2024/03/13 00:19:54;;;;;;;7.25;4.22;;;7.40;99.90;;;;;;5037965;28;20018;-91
2024/03/13 00:22:20;;;;;;;6.03;3.97;;;7.40;99.90;;;;;;5029969;28;20022;-91
2024/03/13 00:24:51;;;;;;;5.00;3.92;;;7.40;99.90;;;;;;5029213;28;20021;-91
2024/03/13 00:27:17;;;;;;;5.63;3.10;;;7.30;99.90;;;;;;5038088;28;20507;-92
2024/03/13 00:29:52;;;;;;;6.25;3.83;;;7.30;99.90;;;;;;5034604;28;20169;-92
2024/03/13 00:32:23;;;;;;;4.53;3.53;;;7.30;99.90;;;;;;5026413;28;20030;-94
2024/03/13 00:34:49;;;;;;;4.70;3.83;;;7.40;99.90;;;;;;5018039;28;20026;-91
2024/03/13 00:37:15;;;;;;;6.57;3.88;;;7.30;99.90;;;;;;5030452;28;20055;-92
2024/03/13 00:39:42;;;;;;;4.43;4.03;;;7.40;99.90;;;;;;5036217;28;20599;-91
2024/03/13 00:42:16;;;;;;;5.35;3.60;;;7.30;99.90;;;;;;5034043;28;20622;-92
2024/03/13 00:44:42;;;;;;;;;;;7.40;99.90;;;;;;5030899;28;20025;-92
2024/03/13 00:47:08;;;;;;;4.97;2.90;;;7.40;99.90;;;;;;5035607;28;19909;-91
2024/03/13 00:49:35;;;;;;;5.80;3.33;;;7.40;99.90;;;;;;5034982;28;20030;-91
2024/03/13 00:52:01;;;;;;;4.38;3.15;;;7.40;99.90;;;;;;5025726;28;20041;-92
2024/03/13 00:54:28;;;;;;;6.93;3.28;;;7.40;99.90;;;;;;5017336;28;20029;-91
2024/03/13 00:56:56;;;;;;;5.55;3.65;;;7.30;99.90;;;;;;5017066;28;20053;-91
2024/03/13 00:59:23;;;;;;;5.85;3.47;;;7.30;99.90;;;;;;5017245;28;20339;-91
2024/03/13 01:01:51;;;;;;;5.85;3.42;;;7.40;99.90;;;;;;5017068;28;20029;-92
2024/03/13 01:04:17;;;;;;;4.82;3.88;;;7.40;99.90;;;;;;5038182;28;20037;-91
2024/03/13 01:06:45;;;;;;;4.50;2.75;;;7.40;99.90;;;;;;5037699;28;20038;-92
2024/03/13 01:09:10;;;;;;;6.93;4.53;;;7.40;99.90;;;;;;5035501;28;20029;-91
2024/03/13 01:11:36;;;;;;;5.38;3.42;;;7.40;99.90;;;;;;5036704;28;20029;-91
2024/03/13 01:14:03;;;;;;;7.00;4.22;;;7.40;99.90;;;;;;5036868;28;20029;-93
2024/03/13 01:16:30;;;;;;;5.60;2.75;;;7.40;99.90;;;;;;5036750;28;20063;-92
2024/03/13 01:18:56;;;;;;;5.25;2.83;;;7.40;99.90;;;;;;5031307;28;20033;-91
2024/03/13 01:21:22;;;;;;;5.28;2.92;;;7.40;99.90;;;;;;5035868;28;20037;-92
2024/03/13 01:23:51;;;;;;;5.93;3.20;;;7.40;99.90;;;;;;5033482;28;20476;-92
2024/03/13 01:26:16;;;;;;;4.25;3.10;;;7.40;99.90;;;;;;5024349;28;20276;-91
2024/03/13 01:28:42;;;;;;;7.85;3.30;;;7.40;99.90;;;;;;5035229;28;20037;-92
2024/03/13 01:31:08;;;;;;;6.28;3.50;;;7.40;99.90;;;;;;5036523;28;20026;-92
2024/03/13 01:33:35;;;;;;;4.90;3.25;;;7.40;99.90;;;;;;5036471;28;20030;-92
2024/03/13 01:36:02;;;;;;;6.35;3.22;;;7.40;99.90;;;;;;5033665;28;20030;-91
2024/03/13 01:38:27;;;;;;;5.60;3.78;;;7.40;99.90;;;;;;5019025;28;20030;-92
2024/03/13 01:57:55;;;;;;;6.53;3.85;;;7.40;99.90;;;;;;5035906;28;20037;-91
2024/03/13 02:03:08;;;;;;;6.93;3.20;;;7.40;99.90;;;;;;5036295;28;20080;-93
2024/03/13 02:05:35;;;;;;;5.90;3.63;;;7.40;99.90;;;;;;5027352;28;20431;-94
2024/03/13 02:08:04;;;;;;;5.47;3.78;;;7.40;99.90;;;;;;5022312;28;20115;-91
2024/03/13 02:10:29;;;;;;;4.97;3.53;;;7.40;99.90;;;;;;5028003;28;20036;-93
2024/03/13 02:13:05;;;;;;;4.60;3.25;;;7.40;99.90;;;;;;5035803;28;20022;-91
2024/03/13 02:15:32;;;;;;;5.18;3.50;;;7.40;99.90;;;;;;5036594;28;20060;-92
2024/03/13 02:18:00;;;;;;;4.25;2.63;;;7.40;99.90;;;;;;5036228;28;20025;-90
2024/03/13 02:20:27;;;;;;;5.22;2.58;;;7.40;99.90;;;;;;5036914;28;20388;-92
2024/03/13 02:23:04;;;;;;;3.60;3.20;;;7.40;99.90;;;;;;5035721;28;20029;-94
2024/03/13 02:25:33;;;;;;;4.95;3.60;;;7.40;99.90;;;;;;5016539;28;20042;-92
2024/03/13 02:28:00;;;;;;;5.43;3.72;;;7.40;99.90;;;;;;5016403;28;20085;-92
2024/03/13 02:30:26;;;;;;;5.35;2.90;;;7.40;99.90;;;;;;5014088;28;20034;-92
2024/03/13 02:32:54;;;;;;;4.38;3.45;;;7.40;99.90;;;;;;5021183;28;20029;-92
2024/03/13 02:35:20;;;;;;;4.22;3.70;;;7.40;99.90;;;;;;5026428;28;20026;-91
2024/03/13 02:37:45;;;;;;;4.55;3.70;;;7.40;99.90;;;;;;5032421;28;20446;-90
2024/03/13 02:40:17;;;;;;;5.55;2.70;;;7.40;99.90;;;;;;5018080;28;20357;-93
2024/03/13 02:42:47;;;;;;;5.20;3.33;;;7.40;99.90;;;;;;5022012;28;20050;-91
2024/03/13 02:45:15;;;;;;;4.35;3.13;;;7.40;99.90;;;;;;5040124;28;20029;-91
2024/03/13 02:47:44;;;;;;;4.80;3.10;;;7.40;99.90;;;;;;5039310;28;20434;-91
2024/03/13 02:50:11;;;;;;;4.85;4.07;;;7.40;99.90;;;;;;5026522;28;20022;-90
2024/03/13 02:52:38;;;;;;;;;;;7.40;99.90;;;;;;5020441;28;20030;-92
2024/03/13 02:55:04;;;;;;;5.90;3.38;;;7.50;99.90;;;;;;5037578;28;19917;-92
2024/03/13 02:57:29;;;;;;;6.30;4.38;;;7.40;99.90;;;;;;5038487;28;20032;-92
2024/03/13 02:59:55;;;;;;;6.13;4.78;;;7.40;99.90;;;;;;5037710;28;20205;-92
2024/03/13 03:02:20;;;;;;;6.75;4.65;;;7.40;99.90;;;;;;5038319;28;20092;-92
2024/03/13 03:04:46;;;;;;;7.50;4.80;;;7.40;99.90;;;;;;5031103;28;20041;-92
2024/03/13 03:07:12;;;;;;;5.78;4.40;;;7.40;99.90;;;;;;5039332;28;20742;-93
2024/03/13 03:09:39;;;;;;;5.68;4.78;;;7.40;99.90;;;;;;5037976;28;20021;-91
2024/03/13 03:12:08;;;;;;;5.82;4.35;;;7.40;99.90;;;;;;5037939;28;20034;-91
2024/03/13 03:14:36;;;;;;;6.38;4.20;;;7.50;99.90;;;;;;5030167;28;20029;-92
2024/03/13 03:17:01;;;;;;;6.05;4.30;;;7.40;99.90;;;;;;5022228;28;20010;-92
2024/03/13 03:19:28;;;;;;;6.13;4.70;;;7.50;99.90;;;;;;5029648;28;20033;-91
2024/03/13 03:21:54;;;;;;;5.15;4.53;;;7.50;99.90;;;;;;5049372;28;20018;-93
2024/03/13 03:24:20;;;;;;;7.65;4.50;;;7.40;99.90;;;;;;5045801;28;20029;-90
2024/03/13 03:26:46;;;;;;;6.55;5.22;;;7.40;99.90;;;;;;5041251;28;20044;-93
2024/03/13 03:29:11;;;;;;;5.32;4.22;;;7.50;99.90;;;;;;5039228;28;20033;-92
2024/03/13 03:31:37;;;;;;;5.93;3.55;;;7.50;99.90;;;;;;5020706;28;20041;-93
2024/03/13 03:34:03;;;;;;;5.63;4.32;;;7.50;99.90;;;;;;5019124;28;20041;-92
2024/03/13 03:36:28;;;;;;;5.28;3.53;;;7.50;99.90;;;;;;5018749;28;20096;-91
2024/03/13 03:38:54;;;;;;;5.78;3.55;;;7.50;99.90;;;;;;5018944;28;20068;-91
2024/03/13 03:41:20;;;;;;;4.95;3.95;;;7.50;99.90;;;;;;5024985;28;20032;-93
2024/03/13 03:43:45;;;;;;;5.68;3.88;;;7.50;99.90;;;;;;5038159;28;20033;-91
2024/03/13 03:46:12;;;;;;;4.95;4.45;;;7.60;99.90;;;;;;5022564;28;20041;-92
2024/03/13 03:48:40;;;;;;;7.28;3.83;;;7.60;99.90;;;;;;5025473;28;20055;-93
2024/03/13 03:51:06;;;;;;;5.60;3.33;;;7.60;99.90;;;;;;5037562;28;20399;-91
2024/03/13 03:53:31;;;;;;;4.95;3.47;;;7.60;99.90;;;;;;5038571;28;20053;-92
2024/03/13 03:55:58;;;;;;;6.45;3.42;;;7.60;99.90;;;;;;5038638;28;20562;-91
2024/03/13 03:58:24;;;;;;;4.82;3.40;;;7.60;99.90;;;;;;5037970;28;20049;-91
2024/03/13 04:00:50;;;;;;;5.68;3.85;;;7.60;99.90;;;;;;5037460;28;20040;-92
2024/03/13 04:03:15;;;;;;;5.32;3.10;;;7.60;99.90;;;;;;5029104;28;20549;-90
2024/03/13 04:05:41;;;;;;;4.57;3.45;;;7.60;99.90;;;;;;5038417;28;20018;-92
2024/03/13 04:08:07;;;;;;;5.35;3.55;;;7.70;99.90;;;;;;5037549;28;20036;-91
2024/03/13 04:10:32;;;;;;;6.18;4.10;;;7.70;99.90;;;;;;5038048;28;20103;-92
2024/03/13 04:12:59;;;;;;;6.05;3.42;;;7.70;99.90;;;;;;5037564;28;20025;-92
2024/03/13 04:15:26;;;;;;;5.30;3.53;;;7.70;99.90;;;;;;5037191;28;20032;-92
2024/03/13 04:17:52;;;;;;;4.90;3.15;;;7.70;99.90;;;;;;5037505;28;20039;-90
2024/03/13 04:20:21;;;;;;;4.38;3.28;;;7.70;99.90;;;;;;5037706;28;20049;-93
2024/03/13 04:22:47;;;;;;;4.60;3.80;;;7.70;99.90;;;;;;5037676;28;20081;-91
2024/03/13 04:25:14;;;;;;;7.05;2.97;;;7.70;99.90;;;;;;5037349;28;20026;-92
2024/03/13 04:27:40;;;;;;;6.80;3.45;;;7.70;99.90;;;;;;5026728;28;20072;-93
2024/03/13 04:30:06;;;;;;;6.15;3.20;;;7.80;99.90;;;;;;5035718;28;20042;-93
2024/03/13 04:32:32;;;;;;;4.82;4.15;;;7.80;99.90;;;;;;5037098;28;20029;-91
2024/03/13 04:34:58;;;;;;;5.00;3.17;;;7.70;99.90;;;;;;5037252;28;20061;-93
2024/03/13 04:37:24;;;;;;;6.60;3.25;;;7.80;99.90;;;;;;5037073;28;20029;-93
2024/03/13 04:39:49;;;;;;;6.68;3.58;;;7.70;99.90;;;;;;5034502;28;20112;-92
2024/03/13 04:42:16;;;;;;;6.40;3.97;;;7.80;99.90;;;;;;5029405;28;20057;-91
2024/03/13 04:44:44;;;;;;;5.28;3.30;;;7.80;99.90;;;;;;5021957;28;20026;-91
2024/03/13 04:47:10;;;;;;;;;;;7.80;99.90;;;;;;5021912;28;20278;-91
2024/03/13 04:49:37;;;;;;;4.43;2.88;;;7.80;99.90;;;;;;5036895;28;19916;-92
2024/03/13 04:52:03;;;;;;;6.30;4.28;;;7.80;99.90;;;;;;5027039;28;20026;-92
2024/03/13 04:54:29;;;;;;;6.88;4.35;;;7.80;99.90;;;;;;5016540;28;20018;-92
2024/03/13 04:56:54;;;;;;;4.95;3.45;;;7.90;99.90;;;;;;5019730;28;20028;-91
2024/03/13 04:59:20;;;;;;;7.40;4.07;;;7.80;99.90;;;;;;5036183;28;20024;-91
2024/03/13 05:01:46;;;;;;;5.25;3.80;;;7.80;99.90;;;;;;5030262;28;20029;-92
2024/03/13 05:04:12;;;;;;;6.57;4.85;;;7.80;99.90;;;;;;5031923;28;20037;-92
2024/03/13 05:06:37;;;;;;;7.15;3.53;;;7.90;99.90;;;;;;5027410;28;20508;-91
2024/03/13 05:09:03;;;;;;;8.57;4.28;;;7.90;99.90;;;;;;5027035;28;20029;-92
2024/03/13 05:11:29;;;;;;;7.07;3.97;;;7.90;99.90;;;;;;5025739;28;20025;-93
2024/03/13 05:13:55;;;;;;;5.32;4.10;;;7.90;99.90;;;;;;5029282;28;20022;-92
2024/03/13 05:16:20;;;;;;;6.68;4.28;;;7.90;99.90;;;;;;5034559;28;20033;-90
2024/03/13 05:18:48;;;;;;;8.23;4.40;;;7.90;99.90;;;;;;5034465;28;20073;-93
2024/03/13 05:21:14;;;;;;;7.93;4.00;;;7.90;99.90;;;;;;5034439;28;20021;-91
2024/03/13 05:23:39;;;;;;;7.50;4.43;;;7.90;99.90;;;;;;5026154;28;20113;-92
2024/03/13 05:26:06;;;;;;;7.95;4.45;;;7.90;99.90;;;;;;5030174;28;20037;-91
2024/03/13 05:28:32;;;;;;;7.68;4.70;;;7.90;99.90;;;;;;5035284;28;20075;-92
2024/03/13 05:30:57;;;;;;;8.25;3.97;;;7.90;99.90;;;;;;5022966;28;20037;-93
2024/03/13 05:33:23;;;;;;;7.90;4.85;;;7.90;99.90;;;;;;5034987;28;20025;-92
2024/03/13 05:35:49;;;;;;;10.18;5.07;;;7.90;99.90;;;;;;5031076;28;20031;-92
2024/03/13 05:38:14;;;;;;;13.82;6.60;;;7.90;99.90;;;;;;5016526;28;20030;-94
2024/03/13 05:40:40;;;;;;;10.57;5.95;;;7.90;99.90;;;;;;5017756;28;20030;-93
2024/03/13 05:43:05;;;;;;;12.40;7.25;;;8.00;99.90;;;;;;5016205;28;20029;-93
2024/03/13 05:45:31;;;;;;;10.10;5.70;;;7.90;99.90;;;;;;5017182;28;20025;-93
2024/03/13 05:47:57;;;;;;;9.82;5.13;;;8.00;99.90;;;;;;5037465;28;20029;-93
2024/03/13 05:50:23;;;;;;;10.77;5.25;;;8.00;99.90;;;;;;5028777;28;20029;-93
2024/03/13 05:52:49;;;;;;;12.30;6.57;;;8.00;99.90;;;;;;5017177;28;20022;-93
2024/03/13 05:55:15;;;;;;;10.75;5.50;;;8.00;99.90;;;;;;5031823;28;20052;-92
2024/03/13 05:57:41;;;;;;;11.07;5.78;;;8.00;99.90;;;;;;5032305;28;20018;-93
2024/03/13 06:00:09;;;;;;;13.73;7.55;;;8.00;99.90;;;;;;5038387;28;20014;-94
2024/03/13 06:02:35;;;;;;;14.23;8.05;;;8.00;99.90;;;;;;5039096;28;20010;-93
2024/03/13 06:05:09;;;;;;;15.52;9.30;;;8.10;99.90;;;;;;5054948;28;20049;-94
2024/03/13 06:07:37;;;;;;;23.73;13.43;;;8.10;99.90;;;;;;5051819;28;20029;-94
2024/03/13 06:10:05;;;;;;;18.35;11.90;;;8.10;99.90;;;;;;5041712;28;20053;-93
2024/03/13 06:12:31;;;;;;;18.63;10.93;;;8.10;99.90;;;;;;5021384;28;20069;-94
2024/03/13 06:14:56;;;;;;;19.73;11.10;;;8.10;99.90;;;;;;5024488;28;20018;-93
2024/03/13 06:17:22;;;;;;;17.65;11.73;;;8.10;99.90;;;;;;5023393;28;20037;-94
2024/03/13 06:19:48;;;;;;;20.83;12.32;;;8.10;99.90;;;;;;5047589;28;20021;-91
2024/03/13 06:22:14;;;;;;;16.30;10.45;;;8.20;99.90;;;;;;5039535;28;20029;-93
2024/03/13 06:24:40;;;;;;;16.42;10.88;;;8.10;99.90;;;;;;5036756;28;20026;-94
2024/03/13 06:27:09;;;;;;;17.33;9.45;;;8.10;99.90;;;;;;5040881;28;20396;-92
2024/03/13 06:32:20;;;;;;;19.17;10.98;;;8.20;99.90;;;;;;5040370;28;20257;-94
2024/03/13 06:34:46;;;;;;;16.88;8.88;;;8.20;99.90;;;;;;5039769;28;20029;-94
2024/03/13 06:37:11;;;;;;;15.90;8.77;;;8.20;99.90;;;;;;5040354;28;20079;-93
2024/03/13 06:39:37;;;;;;;16.83;9.70;;;8.20;99.90;;;;;;5038680;28;20060;-92
2024/03/13 06:42:03;;;;;;;17.20;8.75;;;8.20;99.90;;;;;;5025181;28;20036;-92
2024/03/13 06:44:29;;;;;;;18.63;8.98;;;8.20;99.90;;;;;;5025557;28;20097;-93
2024/03/13 06:46:54;;;;;;;18.83;8.02;;;8.30;99.90;;;;;;5027634;28;20036;-91
2024/03/13 06:50:01;;;;;;;14.57;7.43;;;8.30;99.90;;;;;;5030051;28;20033;-92
2024/03/13 06:52:28;;;;;;;16.80;9.15;;;8.30;99.90;;;;;;5021682;28;20171;-93
2024/03/13 06:54:54;;;;;;;16.75;8.35;;;8.30;99.90;;;;;;5028671;28;20056;-92
2024/03/13 06:57:20;;;;;;;17.02;8.23;;;8.30;99.90;;;;;;5026871;28;20529;-94
2024/03/13 06:59:46;;;;;;;14.18;8.50;;;8.30;99.90;;;;;;5028856;28;20484;-93
2024/03/13 07:02:13;;;;;;;15.55;7.78;;;8.40;99.90;;;;;;5027045;28;20483;-93
2024/03/13 07:04:39;;;;;;;13.30;7.90;;;8.40;99.90;;;;;;5028075;28;20637;-92
2024/03/13 07:07:05;;;;;;;15.95;8.18;;;8.40;99.90;;;;;;5030109;28;20034;-92
2024/03/13 07:09:32;;;;;;;13.45;7.22;;;8.40;99.90;;;;;;5029504;28;20017;-93
2024/03/13 07:11:57;;;;;;;13.60;7.45;;;8.40;99.90;;;;;;5028882;28;20031;-92
2024/03/13 07:14:24;;;;;;;15.13;8.15;;;8.40;99.90;;;;;;5028777;28;20097;-93
2024/03/13 07:16:49;;;;;;;14.68;8.43;;;8.50;99.90;;;;;;5026420;28;20045;-94
2024/03/13 07:19:15;;;;;;;17.77;8.57;;;8.40;99.90;;;;;;5027801;28;20057;-93
2024/03/13 07:21:41;;;;;;;14.00;7.55;;;8.50;99.90;;;;;;5027443;28;20026;-95
2024/03/13 07:24:07;;;;;;;13.10;7.22;;;8.50;99.90;;;;;;5028884;28;20075;-95
2024/03/13 07:26:33;;;;;;;12.73;7.32;;;8.50;99.90;;;;;;5022907;28;20495;-94
2024/03/13 07:29:00;;;;;;;14.73;6.63;;;8.60;99.90;;;;;;5027083;28;20126;-93
2024/03/13 07:31:27;;;;;;;14.20;7.03;;;8.70;99.90;;;;;;5027252;28;20045;-92
2024/03/13 07:33:54;;;;;;;14.27;7.15;;;8.70;99.90;;;;;;5025924;28;20092;-93
2024/03/13 07:36:22;;;;;;;12.85;7.03;;;8.70;99.90;;;;;;5024795;28;20049;-93
2024/03/13 07:38:49;;;;;;;13.38;7.38;;;8.70;99.90;;;;;;5027243;28;20025;-92
2024/03/13 07:41:15;;;;;;;12.98;8.15;;;8.70;99.90;;;;;;5026504;28;20017;-92
2024/03/13 07:43:42;;;;;;;13.52;8.48;;;8.80;99.90;;;;;;5027249;28;20037;-92
2024/03/13 07:46:11;;;;;;;14.25;8.10;;;8.80;99.90;;;;;;5025751;28;20035;-93
2024/03/13 07:48:41;;;;;;;11.50;7.82;;;8.80;99.90;;;;;;5029087;28;20488;-92
2024/03/13 07:51:07;;;;;;;15.60;8.48;;;8.90;99.90;;;;;;5026074;28;20033;-91
2024/03/13 07:53:36;;;;;;;11.30;8.98;;;8.90;99.90;;;;;;5027836;28;20514;-93
2024/03/13 07:56:02;;;;;;;10.55;7.88;;;8.90;99.90;;;;;;5029376;28;20205;-94
2024/03/13 07:58:28;;;;;;;10.48;7.53;;;8.90;99.90;;;;;;5025544;28;21152;-93
2024/03/13 08:00:53;;;;;;;11.75;7.53;;;9.00;99.90;;;;;;5024508;28;20033;-93
2024/03/13 08:03:20;;;;;;;11.43;6.78;;;9.00;99.90;;;;;;5025164;28;20026;-95
2024/03/13 08:05:47;;;;;;;12.63;8.02;;;9.00;99.90;;;;;;5024311;28;20030;-92
2024/03/13 08:08:24;;;;;;;10.35;7.03;;;9.10;99.90;;;;;;5026833;28;20029;-93
2024/03/13 08:11:12;;;;;;;9.82;6.60;;;9.10;99.90;;;;;;5028066;28;20033;-92
2024/03/13 08:13:37;;;;;;;12.25;6.78;;;9.20;99.90;;;;;;5026010;28;20149;-93
2024/03/13 08:16:03;;;;;;;9.93;6.30;;;9.20;99.90;;;;;;5022983;28;20041;-93
2024/03/13 08:18:29;;;;;;;11.38;6.47;;;9.20;99.90;;;;;;5022621;28;20080;-93
2024/03/13 08:20:56;;;;;;;10.25;5.63;;;9.20;99.90;;;;;;5024840;28;20101;-92
2024/03/13 08:23:22;;;;;;;17.52;6.72;;;9.30;99.90;;;;;;5025852;28;20022;-94
2024/03/13 08:25:47;;;;;;;12.15;7.20;;;9.30;99.90;;;;;;5024300;28;20029;-93
2024/03/13 08:28:14;;;;;;;10.65;6.68;;;9.40;99.90;;;;;;5024720;28;20534;-92
2024/03/13 08:30:40;;;;;;;10.93;6.63;;;9.40;99.90;;;;;;5027059;28;20076;-92
2024/03/13 08:33:06;;;;;;;8.13;5.05;;;9.40;99.90;;;;;;5023255;28;20033;-92
2024/03/13 08:35:32;;;;;;;9.55;5.22;;;9.40;99.90;;;;;;5018869;28;20033;-92
2024/03/13 08:37:59;;;;;;;8.98;6.38;;;9.50;99.90;;;;;;5020784;28;20057;-92
2024/03/13 08:40:32;;;;;;;9.10;5.32;;;9.50;99.90;;;;;;5024838;28;20032;-93
2024/03/13 08:42:58;;;;;;;10.70;5.93;;;9.60;99.90;;;;;;5021388;28;20049;-92
2024/03/13 08:45:27;;;;;;;10.48;5.40;;;9.80;99.90;;;;;;5025370;28;20399;-93
2024/03/13 08:47:53;;;;;;;10.25;6.07;;;9.80;99.90;;;;;;5025076;28;20029;-91
2024/03/13 08:50:19;;;;;;;10.32;5.18;;;9.70;99.90;;;;;;5023679;28;21400;-93
2024/03/13 08:52:46;;;;;;;13.32;6.53;;;9.80;99.90;;;;;;5023470;28;20032;-93
2024/03/13 08:55:13;;;;;;;10.63;6.60;;;9.80;99.90;;;;;;5026410;28;20148;-92
2024/03/13 08:57:39;;;;;;;8.98;5.40;;;9.80;99.90;;;;;;5029306;28;20044;-92
2024/03/13 09:00:10;;;;;;;10.70;5.85;;;9.80;99.90;;;;;;5024358;28;20667;-93
2024/03/13 09:02:36;;;;;;;10.57;5.40;;;9.80;99.90;;;;;;5025628;28;20022;-91
2024/03/13 09:05:03;;;;;;;9.68;6.03;;;9.80;99.90;;;;;;5026682;28;20029;-91
2024/03/13 09:07:30;;;;;;;9.85;6.10;;;9.90;99.90;;;;;;5023525;28;20118;-93
2024/03/13 09:09:56;;;;;;;9.25;5.45;;;9.90;99.90;;;;;;5025571;28;20183;-93
2024/03/13 09:12:22;;;;;;;9.70;6.68;;;10.00;99.90;;;;;;5026368;28;20128;-93
2024/03/13 09:14:49;;;;;;;12.05;6.43;;;9.90;99.90;;;;;;5024849;28;20030;-92
2024/03/13 09:17:14;;;;;;;10.57;6.03;;;9.90;99.90;;;;;;5021769;28;20041;-93
2024/03/13 09:19:41;;;;;;;10.77;5.80;;;10.00;99.90;;;;;;5024563;28;20050;-92
2024/03/13 09:22:11;;;;;;;10.00;5.93;;;10.10;99.90;;;;;;5024596;28;20524;-91
2024/03/13 09:24:37;;;;;;;14.38;6.00;;;10.10;99.90;;;;;;5022708;28;20056;-92
2024/03/13 09:27:04;;;;;;;10.25;5.40;;;10.10;99.90;;;;;;5024127;28;20336;-92
2024/03/13 09:29:31;;;;;;;9.10;5.30;;;10.10;99.90;;;;;;5025407;28;20083;-93
2024/03/13 09:31:57;;;;;;;8.93;5.72;;;10.10;99.90;;;;;;5022124;28;20040;-91
2024/03/13 09:34:23;;;;;;;11.25;6.47;;;10.20;99.90;;;;;;5025647;28;20064;-93
2024/03/13 09:36:49;;;;;;;8.45;5.60;;;10.20;99.90;;;;;;5025286;28;20076;-94
2024/03/13 09:39:15;;;;;;;8.23;5.18;;;10.30;99.90;;;;;;5023281;28;20029;-93
2024/03/13 09:41:41;;;;;;;9.82;5.07;;;10.40;99.90;;;;;;5028608;28;20025;-95
2024/03/13 09:44:09;;;;;;;9.57;5.70;;;10.30;99.90;;;;;;5027970;28;20036;-94
2024/03/13 09:46:36;;;;;;;9.90;4.88;;;10.40;99.90;;;;;;5026486;28;20111;-95
2024/03/13 09:49:02;;;;;;;7.78;5.47;;;10.50;99.90;;;;;;5025766;28;20083;-94
2024/03/13 09:51:29;;;;;;;6.82;4.35;;;10.50;99.90;;;;;;5026747;28;20046;-94
2024/03/13 09:53:56;;;;;;;8.00;4.65;;;10.50;99.90;;;;;;5030155;28;20087;-93
2024/03/13 09:56:24;;;;;;;6.90;4.93;;;10.60;99.90;;;;;;5026174;28;20519;-94
2024/03/13 09:58:50;;;;;;;;;;;10.60;99.90;;;;;;5031015;28;20021;-93
2024/03/13 10:01:46;;;;;;;6.88;5.50;;;10.60;99.90;;;;;;5029245;28;19905;-95
2024/03/13 10:04:20;;;;;;;6.80;4.32;;;10.60;99.90;;;;;;5028346;28;20111;-95
2024/03/13 10:06:53;;;;;;;9.73;5.65;;;10.60;99.90;;;;;;5025360;28;20131;-94
2024/03/13 10:09:23;;;;;;;6.63;4.50;;;10.60;99.90;;;;;;5027455;28;20034;-94
2024/03/13 10:11:51;;;;;;;6.68;5.32;;;10.60;99.90;;;;;;5028752;28;20048;-94
2024/03/13 10:14:21;;;;;;;8.30;4.93;;;10.60;99.90;;;;;;5030069;28;20025;-93
2024/03/13 10:16:52;;;;;;;7.32;4.97;;;10.70;99.90;;;;;;5026323;28;20096;-94
2024/03/13 10:19:21;;;;;;;7.25;4.55;;;10.70;99.90;;;;;;5024990;28;20017;-94
2024/03/13 10:21:47;;;;;;;6.45;4.43;;;10.70;99.90;;;;;;5026761;28;20515;-93
2024/03/13 10:24:15;;;;;;;6.32;4.60;;;10.80;99.90;;;;;;5027435;28;20061;-94
2024/03/13 10:26:45;;;;;;;8.82;6.05;;;10.80;99.90;;;;;;5024125;28;20037;-94
2024/03/13 10:29:11;;;;;;;9.10;4.85;;;10.90;99.90;;;;;;5027210;28;20334;-95
2024/03/13 10:31:38;;;;;;;7.97;5.90;;;11.00;99.90;;;;;;5026215;28;20037;-93
2024/03/13 10:34:05;;;;;;;7.70;5.20;;;11.10;99.90;;;;;;5027552;28;20087;-93
2024/03/13 10:36:31;;;;;;;10.43;5.82;;;11.10;99.90;;;;;;5024422;28;20018;-94
2024/03/13 10:38:58;;;;;;;10.23;6.95;;;11.10;99.90;;;;;;5031718;28;20503;-94
2024/03/13 10:41:23;;;;;;;11.27;6.68;;;11.20;99.90;;;;;;5027304;28;20029;-94
2024/03/13 10:43:51;;;;;;;9.75;6.25;;;11.20;99.90;;;;;;5028287;28;20033;-94
2024/03/13 10:46:16;;;;;;;13.30;7.82;;;11.10;99.90;;;;;;5024709;28;20522;-93
2024/03/13 10:48:42;;;;;;;9.70;6.60;;;11.10;99.90;;;;;;5026676;28;20059;-94
2024/03/13 10:51:13;;;;;;;12.13;7.45;;;11.10;99.90;;;;;;5026247;28;20034;-95
2024/03/13 10:53:39;;;;;;;11.10;6.57;;;11.10;99.90;;;;;;5027236;28;20040;-94
2024/03/13 10:56:15;;;;;;;12.80;6.65;;;11.10;99.90;;;;;;5027284;28;20092;-94
2024/03/13 10:58:49;;;;;;;10.43;6.57;;;11.10;99.90;;;;;;5027931;28;20022;-93
2024/03/13 11:01:21;;;;;;;12.40;7.82;;;11.10;99.90;;;;;;5028130;28;20029;-91
2024/03/13 11:03:58;;;;;;;13.73;7.03;;;11.20;99.90;;;;;;5031311;28;20064;-93
2024/03/13 11:06:25;;;;;;;13.52;6.97;;;11.20;99.90;;;;;;5030102;28;20072;-95
2024/03/13 11:08:50;;;;;;;14.25;7.05;;;11.30;99.90;;;;;;5031919;28;20403;-92
2024/03/13 11:11:20;;;;;;;11.90;7.75;;;11.40;99.90;;;;;;5032466;28;20031;-95
2024/03/13 11:13:54;;;;;;;13.73;6.95;;;11.50;99.90;;;;;;5033001;28;20080;-94
2024/03/13 11:16:24;;;;;;;11.52;6.03;;;11.40;99.90;;;;;;5033288;28;20022;-95
2024/03/13 11:18:55;;;;;;;12.05;7.55;;;11.30;99.90;;;;;;5030036;28;20029;-93
2024/03/13 11:21:35;;;;;;;13.45;8.13;;;11.30;99.90;;;;;;5029039;28;20026;-95
2024/03/13 11:24:07;;;;;;;15.05;8.27;;;11.20;99.90;;;;;;5030506;28;20075;-92
2024/03/13 11:26:38;;;;;;;13.25;6.97;;;11.10;99.90;;;;;;5029000;28;20034;-92
2024/03/13 11:29:11;;;;;;;14.57;7.88;;;11.10;99.90;;;;;;5032075;28;20041;-93
2024/03/13 11:31:39;;;;;;;12.38;8.45;;;11.10;99.90;;;;;;5028291;28;20026;-94
2024/03/13 11:34:07;;;;;;;13.75;8.18;;;11.10;99.90;;;;;;5031563;28;20065;-92
2024/03/13 11:36:33;;;;;;;14.68;8.27;;;11.00;99.90;;;;;;5029496;28;20021;-93
2024/03/13 11:38:59;;;;;;;13.95;8.23;;;11.10;99.90;;;;;;5028592;28;20029;-93
2024/03/13 11:41:25;;;;;;;14.35;8.73;;;11.20;99.90;;;;;;5026722;28;20037;-94
2024/03/13 11:43:53;;;;;;;16.80;10.18;;;11.10;99.90;;;;;;5030575;28;20108;-93
2024/03/13 11:46:23;;;;;;;16.25;8.50;;;11.10;99.90;;;;;;5028731;28;20093;-91
2024/03/13 11:48:49;;;;;;;16.10;8.45;;;11.20;99.90;;;;;;5029672;28;20033;-93
2024/03/13 11:51:15;;;;;;;22.23;8.98;;;11.30;99.90;;;;;;5031754;28;20669;-94
2024/03/13 11:53:42;;;;;;;19.10;10.05;;;11.20;99.90;;;;;;5035787;28;20232;-95
2024/03/13 11:56:13;;;;;;;16.88;10.25;;;11.30;99.90;;;;;;5027887;28;20033;-93
2024/03/13 11:58:40;;;;;;;11.45;7.90;;;11.30;99.90;;;;;;5029152;28;20033;-93
2024/03/13 12:01:12;;;;;;;13.57;8.15;;;11.40;99.90;;;;;;5030266;28;20030;-94
2024/03/13 12:03:48;;;;;;;16.15;9.10;;;11.50;99.90;;;;;;5029821;28;20029;-93
2024/03/13 12:06:19;;;;;;;17.15;8.68;;;11.60;99.90;;;;;;5027005;28;20045;-91
2024/03/13 12:08:45;;;;;;;14.80;7.97;;;11.70;99.90;;;;;;5028487;28;21405;-94
2024/03/13 12:11:18;;;;;;;13.85;8.55;;;11.80;99.90;;;;;;5030657;28;20025;-94
2024/03/13 12:13:45;;;;;;;12.98;7.18;;;11.70;99.90;;;;;;5029737;28;20093;-94
2024/03/13 12:16:14;;;;;;;12.23;6.80;;;11.60;99.90;;;;;;5027090;28;20029;-94
2024/03/13 12:18:52;;;;;;;12.18;7.30;;;11.60;99.90;;;;;;5033077;28;20105;-93
2024/03/13 12:21:25;;;;;;;14.98;8.63;;;11.60;99.90;;;;;;5034964;28;20021;-95
2024/03/13 12:23:52;;;;;;;11.43;6.57;;;11.50;99.90;;;;;;5036101;28;20025;-94
2024/03/13 12:26:19;;;;;;;10.40;6.30;;;11.50;99.90;;;;;;5031066;28;20650;-93
2024/03/13 12:28:45;;;;;;;11.38;7.30;;;11.50;99.90;;;;;;5033107;28;20041;-94
2024/03/13 12:31:14;;;;;;;11.93;7.60;;;11.40;99.90;;;;;;5032313;28;20025;-94
2024/03/13 12:33:40;;;;;;;12.05;7.47;;;11.40;99.90;;;;;;5034800;28;20022;-93
2024/03/13 12:36:06;;;;;;;12.40;6.90;;;11.40;99.90;;;;;;5031093;28;20043;-93
2024/03/13 12:38:39;;;;;;;13.85;7.65;;;11.40;99.90;;;;;;5032990;28;20009;-94
2024/03/13 12:41:08;;;;;;;13.45;6.97;;;11.40;99.90;;;;;;5031973;28;20022;-94
2024/03/13 12:43:35;;;;;;;12.18;6.93;;;11.50;99.90;;;;;;5031418;28;20099;-94
2024/03/13 12:46:03;;;;;;;12.05;6.97;;;11.50;99.90;;;;;;5032910;28;20034;-95
2024/03/13 12:48:33;;;;;;;12.20;6.78;;;11.60;99.90;;;;;;5031564;28;20032;-95
2024/03/13 12:51:00;;;;;;;13.23;7.18;;;11.60;99.90;;;;;;5033118;28;20073;-94
2024/03/13 12:53:27;;;;;;;12.27;5.70;;;11.70;99.90;;;;;;5033099;28;20037;-95
2024/03/13 12:55:54;;;;;;;12.13;7.13;;;11.80;99.90;;;;;;5033606;28;20029;-96
2024/03/13 12:58:21;;;;;;;10.32;6.38;;;11.80;99.90;;;;;;5033711;28;20083;-94
2024/03/13 13:00:46;;;;;;;10.70;6.32;;;11.80;99.90;;;;;;5033875;28;20032;-94
2024/03/13 13:03:14;;;;;;;11.80;7.10;;;11.80;99.90;;;;;;5036487;28;20033;-95
2024/03/13 13:05:42;;;;;;;10.40;6.13;;;11.80;99.90;;;;;;5034009;28;20021;-93
2024/03/13 13:08:10;;;;;;;;;;;11.90;99.90;;;;;;5032181;28;20033;-93
2024/03/13 13:10:37;;;;;;;8.95;5.38;;;12.00;99.90;;;;;;5036788;28;20274;-95
2024/03/13 13:13:04;;;;;;;12.82;6.40;;;12.10;99.90;;;;;;5033735;28;20025;-94